createdAt,value
2023-04-16T00:03:00.232Z,5.00
2023-04-16T00:07:01.884Z,4.72
2023-04-16T00:11:03.429Z,5.20
2023-04-16T00:15:05.454Z,5.50
2023-04-16T00:19:07.081Z,4.60
2023-04-16T00:23:08.558Z,5.32
2023-04-16T00:27:09.938Z,4.57
2023-04-16T00:31:11.384Z,4.47
2023-04-16T00:35:12.760Z,4.50
2023-04-16T00:39:14.225Z,4.18
2023-04-16T00:43:24.813Z,4.78
2023-04-16T00:47:27.968Z,5.40
2023-04-16T00:51:29.734Z,3.83
2023-04-16T00:55:31.307Z,4.20
2023-04-16T00:59:32.853Z,4.35
2023-04-16T01:03:44.842Z,5.70
2023-04-16T01:07:46.402Z,4.72
2023-04-16T01:11:47.819Z,4.95
2023-04-16T01:15:49.396Z,6.35
2023-04-16T01:19:50.871Z,4.70
2023-04-16T01:23:52.265Z,4.80
2023-04-16T01:27:54.822Z,3.95
2023-04-16T01:31:56.258Z,5.10
2023-04-16T01:36:01.691Z,5.03
2023-04-16T01:40:03.323Z,5.75
2023-04-16T01:44:04.856Z,5.13
2023-04-16T01:48:06.738Z,5.32
2023-04-16T01:52:08.628Z,5.93
2023-04-16T01:56:10.121Z,5.25
2023-04-16T02:00:11.707Z,4.97
2023-04-16T02:04:21.976Z,6.05
2023-04-16T02:08:23.720Z,5.85
2023-04-16T02:12:26.144Z,5.05
2023-04-16T02:16:27.621Z,4.03
2023-04-16T02:20:43.705Z,5.50
2023-04-16T02:24:45.401Z,6.00
2023-04-16T02:28:46.790Z,5.43
2023-04-16T02:32:49.617Z,6.65
2023-04-16T02:36:51.935Z,5.90
2023-04-16T02:40:53.349Z,5.05
2023-04-16T02:44:54.705Z,5.30
2023-04-16T02:48:56.111Z,4.95
2023-04-16T02:52:57.486Z,5.93
2023-04-16T02:57:48.324Z,6.30
2023-04-16T03:02:47.686Z,4.45
2023-04-16T03:07:05.674Z,6.13
2023-04-16T03:11:41.083Z,5.70
2023-04-16T03:15:50.862Z,4.63
2023-04-16T03:20:53.760Z,4.03
2023-04-16T03:25:59.058Z,3.65
2023-04-16T03:30:16.451Z,4.05
2023-04-16T03:34:18.113Z,4.35
2023-04-16T03:38:20.376Z,4.07
2023-04-16T03:42:21.927Z,4.55
2023-04-16T03:46:23.368Z,4.65
2023-04-16T03:50:25.329Z,5.63
2023-04-16T03:54:26.902Z,4.78
2023-04-16T03:58:40.171Z,5.88
2023-04-16T04:02:43.131Z,4.30
2023-04-16T04:06:51.760Z,5.47
2023-04-16T04:10:53.235Z,5.15
2023-04-16T04:14:57.962Z,5.07
2023-04-16T04:19:00.288Z,4.50
2023-04-16T04:23:01.880Z,5.72
2023-04-16T04:27:03.711Z,5.78
2023-04-16T04:31:06.927Z,4.88
2023-04-16T04:35:08.825Z,6.25
2023-04-16T04:39:10.624Z,6.65
2023-04-16T04:43:12.424Z,4.57
2023-04-16T04:47:14.913Z,4.53
2023-04-16T04:51:16.378Z,4.32
2023-04-16T04:55:20.447Z,5.03
2023-04-16T04:59:22.884Z,6.85
2023-04-16T05:03:24.501Z,5.30
2023-04-16T05:07:26.103Z,5.20
2023-04-16T05:11:27.506Z,4.82
2023-04-16T05:15:29.094Z,6.43
2023-04-16T05:19:30.577Z,5.85
2023-04-16T05:23:32.001Z,5.05
2023-04-16T05:27:33.424Z,4.68
2023-04-16T05:31:34.813Z,6.15
2023-04-16T05:35:36.191Z,5.75
2023-04-16T05:39:37.589Z,6.07
2023-04-16T05:43:38.989Z,5.32
2023-04-16T05:47:40.530Z,5.15
2023-04-16T05:51:41.959Z,6.50
2023-04-16T05:55:43.481Z,4.95
2023-04-16T05:59:54.060Z,4.15
2023-04-16T06:04:03.334Z,5.07
2023-04-16T06:08:04.901Z,5.63
2023-04-16T06:12:06.302Z,4.88
2023-04-16T06:16:07.749Z,4.53
2023-04-16T06:20:09.743Z,3.92
2023-04-16T06:24:11.181Z,5.25
2023-04-16T06:28:12.593Z,4.38
2023-04-16T06:32:14.098Z,4.18
2023-04-16T06:47:47.932Z,6.30
2023-04-16T07:03:01.416Z,4.28
2023-04-16T07:07:18.342Z,3.72
2023-04-16T07:11:41.258Z,3.33
2023-04-16T07:20:12.281Z,6.80
2023-04-16T07:24:36.407Z,7.00
2023-04-16T07:29:07.561Z,5.65
2023-04-16T07:33:21.121Z,3.70
2023-04-16T07:37:26.106Z,6.95
2023-04-16T07:41:29.433Z,4.45
2023-04-16T07:45:30.847Z,4.93
2023-04-16T07:49:32.220Z,3.88
2023-04-16T07:53:33.641Z,3.70
2023-04-16T07:57:35.249Z,3.97
2023-04-16T08:01:36.640Z,4.80
2023-04-16T08:05:38.026Z,3.80
2023-04-16T08:09:53.800Z,3.28
2023-04-16T08:13:55.341Z,3.33
2023-04-16T08:17:56.799Z,4.38
2023-04-16T08:21:58.220Z,3.78
2023-04-16T08:26:01.087Z,4.15
2023-04-16T08:30:02.517Z,3.08
2023-04-16T08:34:03.928Z,4.47
2023-04-16T08:38:07.321Z,3.75
2023-04-16T08:42:30.350Z,4.40
2023-04-16T08:46:36.520Z,4.00
2023-04-16T08:50:38.737Z,4.00
2023-04-16T08:55:01.252Z,4.82
2023-04-16T08:59:05.500Z,4.60
2023-04-16T09:03:09.119Z,2.92
2023-04-16T09:07:11.359Z,3.33
2023-04-16T09:11:18.300Z,3.70
2023-04-16T09:15:20.928Z,3.60
2023-04-16T09:19:23.515Z,3.15
2023-04-16T09:23:25.476Z,3.00
2023-04-16T09:27:27.736Z,4.38
2023-04-16T09:31:30.172Z,3.05
2023-04-16T09:35:53.434Z,3.33
2023-04-16T09:40:00.778Z,3.47
2023-04-16T09:44:04.501Z,3.47
2023-04-16T09:48:06.776Z,3.00
2023-04-16T09:52:15.856Z,3.83
2023-04-16T09:56:17.464Z,2.65
2023-04-16T10:00:19.469Z,3.88
2023-04-16T10:04:22.412Z,2.30
2023-04-16T10:08:24.025Z,3.17
2023-04-16T10:12:25.745Z,2.80
2023-04-16T10:16:28.079Z,2.60
2023-04-16T10:20:32.450Z,4.10
2023-04-16T10:24:35.725Z,2.83
2023-04-16T10:28:37.446Z,3.17
2023-04-16T10:32:39.693Z,3.65
2023-04-16T10:36:41.503Z,3.13
2023-04-16T10:40:45.243Z,2.80
2023-04-16T10:44:47.110Z,4.25
2023-04-16T10:48:52.623Z,3.45
2023-04-16T10:53:17.969Z,3.28
2023-04-16T10:57:20.686Z,2.88
2023-04-16T11:01:41.044Z,6.32
2023-04-16T11:05:47.020Z,3.58
2023-04-16T11:10:05.180Z,3.83
2023-04-16T11:14:09.229Z,4.18
2023-04-16T11:18:10.847Z,3.92
2023-04-16T11:22:15.248Z,3.55
2023-04-16T11:26:27.797Z,2.55
2023-04-16T11:30:31.171Z,3.17
2023-04-16T11:34:33.050Z,3.60
2023-04-16T11:38:36.997Z,2.42
2023-04-16T11:42:42.750Z,4.25
2023-04-16T11:46:44.314Z,3.60
2023-04-16T11:50:56.103Z,2.67
2023-04-16T11:54:58.218Z,2.30
2023-04-16T11:59:10.583Z,3.28
2023-04-16T12:03:12.601Z,2.47
2023-04-16T12:07:14.384Z,2.35
2023-04-16T12:11:15.972Z,3.65
2023-04-16T12:15:17.407Z,3.42
2023-04-16T12:19:18.876Z,3.42
2023-04-16T12:23:30.893Z,4.07
2023-04-16T12:27:51.341Z,2.25
2023-04-16T12:31:54.564Z,3.33
2023-04-16T12:35:56.213Z,2.45
2023-04-16T12:39:57.572Z,3.47
2023-04-16T12:44:06.991Z,2.95
2023-04-16T12:48:08.435Z,3.00
2023-04-16T12:52:09.997Z,2.85
2023-04-16T12:56:11.425Z,2.92
2023-04-16T13:00:16.717Z,3.67
2023-04-16T13:04:19.595Z,4.03
2023-04-16T13:08:23.992Z,3.17
2023-04-16T13:12:27.966Z,3.63
2023-04-16T13:16:29.409Z,3.30
2023-04-16T13:20:31.008Z,3.85
2023-04-16T13:24:33.220Z,2.92
2023-04-16T13:28:36.119Z,4.80
2023-04-16T13:32:40.889Z,3.28
2023-04-16T13:36:45.261Z,3.38
2023-04-16T13:40:48.600Z,2.03
2023-04-16T13:44:54.304Z,3.08
2023-04-16T13:48:56.347Z,2.65
2023-04-16T13:52:59.650Z,2.92
2023-04-16T13:57:01.529Z,2.45
2023-04-16T14:01:04.279Z,1.80
2023-04-16T14:05:07.512Z,3.28
2023-04-16T14:09:11.300Z,2.80
2023-04-16T14:13:16.296Z,2.38
2023-04-16T14:17:17.713Z,3.70
2023-04-16T14:21:19.164Z,3.70
2023-04-16T14:25:20.630Z,3.22
2023-04-16T14:29:21.970Z,3.40
2023-04-16T14:33:23.706Z,2.58
2023-04-16T14:37:26.231Z,3.83
2023-04-16T14:41:27.940Z,3.20
2023-04-16T14:45:30.825Z,3.83
2023-04-16T14:49:32.330Z,3.53
2023-04-16T14:53:34.388Z,3.67
2023-04-16T14:57:35.914Z,3.10
2023-04-16T15:01:39.774Z,3.85
2023-04-16T15:05:41.354Z,3.58
2023-04-16T15:09:42.805Z,3.33
2023-04-16T15:13:44.278Z,3.85
2023-04-16T15:17:45.810Z,4.93
2023-04-16T15:21:48.824Z,4.65
2023-04-16T15:25:50.456Z,3.95
2023-04-16T15:29:53.815Z,3.63
2023-04-16T15:33:56.085Z,3.53
2023-04-16T15:37:57.483Z,3.97
2023-04-16T15:42:01.542Z,3.88
2023-04-16T15:46:04.645Z,4.47
2023-04-16T15:50:06.591Z,2.60
2023-04-16T15:54:08.349Z,3.80
2023-04-16T15:58:09.838Z,3.25
2023-04-16T16:02:11.314Z,4.22
2023-04-16T16:06:12.827Z,3.78
2023-04-16T16:10:14.222Z,3.28
2023-04-16T16:14:18.572Z,3.72
2023-04-16T16:18:21.974Z,3.42
2023-04-16T16:22:23.754Z,3.75
2023-04-16T16:26:25.239Z,4.45
2023-04-16T16:30:27.118Z,3.70
2023-04-16T16:34:28.559Z,3.92
2023-04-16T16:38:30.028Z,3.20
2023-04-16T16:42:31.666Z,3.47
2023-04-16T16:46:33.141Z,3.83
2023-04-16T16:50:34.553Z,3.42
2023-04-16T16:54:36.030Z,4.15
2023-04-16T16:58:37.504Z,3.90
2023-04-16T17:02:39.070Z,3.97
2023-04-16T17:06:40.720Z,4.07
2023-04-16T17:10:44.517Z,4.53
2023-04-16T17:14:50.114Z,4.32
2023-04-16T17:18:51.520Z,4.43
2023-04-16T17:22:53.071Z,3.88
2023-04-16T17:26:54.466Z,8.02
2023-04-16T17:30:56.923Z,7.93
2023-04-16T17:34:59.694Z,4.07
2023-04-16T17:39:02.239Z,3.65
2023-04-16T17:43:04.223Z,3.55
2023-04-16T17:47:05.714Z,3.05
2023-04-16T17:51:15.378Z,3.85
2023-04-16T17:59:18.247Z,2.45
2023-04-16T18:03:21.800Z,2.63
2023-04-16T18:07:23.726Z,3.08
2023-04-16T18:11:25.164Z,3.25
2023-04-16T18:15:26.679Z,2.60
2023-04-16T18:19:28.415Z,2.47
2023-04-16T18:23:29.782Z,2.97
2023-04-16T18:27:31.160Z,2.80
2023-04-16T18:31:32.659Z,2.90
2023-04-16T18:35:34.117Z,2.88
2023-04-16T18:39:36.758Z,3.40
2023-04-16T18:43:38.141Z,3.60
2023-04-16T18:47:40.124Z,2.50
2023-04-16T18:51:42.059Z,2.50
2023-04-16T18:55:43.437Z,1.83
2023-04-16T18:59:44.863Z,2.78
2023-04-16T19:03:46.520Z,2.95
2023-04-16T19:07:47.952Z,1.77
2023-04-16T19:11:50.398Z,2.40
2023-04-16T19:15:55.775Z,2.22
2023-04-16T19:19:57.250Z,2.80
2023-04-16T19:23:58.728Z,3.78
2023-04-16T19:28:00.183Z,2.92
2023-04-16T19:32:02.463Z,2.72
2023-04-16T19:36:04.216Z,2.83
2023-04-16T19:40:06.619Z,2.45
2023-04-16T19:44:08.308Z,2.95
2023-04-16T19:48:09.776Z,2.55
2023-04-16T19:52:11.280Z,2.28
2023-04-16T19:56:14.062Z,3.45
2023-04-16T20:00:16.101Z,2.83
2023-04-16T20:04:17.514Z,2.55
2023-04-16T20:08:18.984Z,3.03
2023-04-16T20:12:20.486Z,2.45
2023-04-16T20:16:23.816Z,2.40
2023-04-16T20:20:25.456Z,3.13
2023-04-16T20:24:26.803Z,2.38
2023-04-16T20:28:28.189Z,2.53
2023-04-16T20:32:29.993Z,3.22
2023-04-16T20:36:31.818Z,2.97
2023-04-16T20:40:33.238Z,2.78
2023-04-16T20:44:40.383Z,2.67
2023-04-16T20:48:42.124Z,3.28
2023-04-16T20:52:43.550Z,2.80
2023-04-16T20:56:44.959Z,3.42
2023-04-16T21:00:52.587Z,2.53
2023-04-16T21:04:54.335Z,2.20
2023-04-16T21:08:56.036Z,2.83
2023-04-16T21:12:57.407Z,2.65
2023-04-16T21:16:58.774Z,3.10
2023-04-16T21:21:00.794Z,2.92
2023-04-16T21:25:02.613Z,2.92
2023-04-16T21:29:04.221Z,3.30
2023-04-16T21:33:05.672Z,2.83
2023-04-16T21:37:08.232Z,3.35
2023-04-16T21:41:09.634Z,2.90
2023-04-16T21:45:11.494Z,2.20
2023-04-16T21:49:13.179Z,3.05
2023-04-16T21:53:14.734Z,2.65
2023-04-16T21:57:16.239Z,2.90
2023-04-16T22:01:17.715Z,3.45
2023-04-16T22:05:19.960Z,2.42
2023-04-16T22:09:27.249Z,3.65
2023-04-16T22:13:30.088Z,3.00
2023-04-16T22:17:31.491Z,3.67
2023-04-16T22:21:32.910Z,2.90
2023-04-16T22:25:34.302Z,2.65
2023-04-16T22:29:35.674Z,3.45
2023-04-16T22:33:37.149Z,2.75
2023-04-16T22:37:38.588Z,3.40
2023-04-16T22:41:40.415Z,2.35
2023-04-16T22:45:43.003Z,3.83
2023-04-16T22:49:44.419Z,2.80
2023-04-16T22:53:45.773Z,3.40
2023-04-16T22:57:47.638Z,3.17
2023-04-16T23:01:49.508Z,2.90
2023-04-16T23:05:50.894Z,3.35
2023-04-16T23:09:52.270Z,3.63
2023-04-16T23:13:53.887Z,2.97
2023-04-16T23:17:55.756Z,3.00
2023-04-16T23:21:57.203Z,2.70
2023-04-16T23:25:58.627Z,2.72
2023-04-16T23:30:00.193Z,2.88
2023-04-16T23:34:01.623Z,3.53
2023-04-16T23:38:03.331Z,3.00
2023-04-16T23:42:04.713Z,3.33
2023-04-16T23:46:06.750Z,3.17
2023-04-16T23:50:08.252Z,3.33
2023-04-16T23:54:09.687Z,3.80
2023-04-16T23:58:11.428Z,3.13
